KFMH/FMH METAR and TAF weather

Enter ICAO airport designator
Station Type Date Time Source
KFMH METAR 2022/01/23 12:50 UTC NOAA

KFMH 231250Z 27008KT 10SM CLR M04/M09 A2994


Station Type Date Time Source
KFMH Decoded METAR 2022/01/23 12:50 UTC NOAA

Otis Air National Guard Base, MA, United States (KFMH) 41-39N 070-31W
Jan 23, 2022 - 07:50 AM EST / 2022.01.23 1250 UTC
Wind: from the W (270 degrees) at 9 MPH (8 KT):0
Visibility: 10 mile(s):0
Sky conditions: clear
Temperature: 24 F (-4 C)
Windchill: 14 F (-10 C):1
Dew Point: 15 F (-9 C)
Relative Humidity: 68%
Pressure (altimeter): 29.94 in. Hg (1013 hPa)
ob: KFMH 231250Z 27008KT 10SM CLR M04/M09 A2994
cycle: 13

Station Type Date Time Source
KFMH TAF 2022/01/23 12:30 UTC NOAA

TAF KFMH 231129Z 2312/2412 24008KT P6SM OVC045
FM231500 24013G25KT P6SM OVC080
FM232300 25009KT P6SM OVC060
FM240300 27005KT P6SM VCSH OVC035
FM240600 29003KT P6SM BKN035

Example: see airport list